sensor_id;sensor_type;location;lat;lon;timestamp;pressure;altitude;pressure_sealevel;temperature;humidity
67517;BME280;68821;59.134;37.894;2023-04-04T00:00:22;100387.22;;;5.14;80.12
67517;BME280;68821;59.134;37.894;2023-04-04T00:02:48;100388.16;;;5.16;79.94
67517;BME280;68821;59.134;37.894;2023-04-04T00:05:15;100378.78;;;5.15;80.57
67517;BME280;68821;59.134;37.894;2023-04-04T00:07:41;100382.94;;;5.13;80.19
67517;BME280;68821;59.134;37.894;2023-04-04T00:10:07;100390.53;;;5.11;80.02
67517;BME280;68821;59.134;37.894;2023-04-04T00:12:34;100387.97;;;5.11;80.45
67517;BME280;68821;59.134;37.894;2023-04-04T00:15:01;100393.94;;;5.12;80.45
67517;BME280;68821;59.134;37.894;2023-04-04T00:17:27;100392.25;;;5.12;80.48
67517;BME280;68821;59.134;37.894;2023-04-04T00:19:53;100383.75;;;5.12;79.80
67517;BME280;68821;59.134;37.894;2023-04-04T00:22:19;100379.47;;;5.11;80.18
67517;BME280;68821;59.134;37.894;2023-04-04T00:24:45;100383.66;;;5.10;79.88
67517;BME280;68821;59.134;37.894;2023-04-04T00:27:11;100390.44;;;5.10;80.08
67517;BME280;68821;59.134;37.894;2023-04-04T00:29:37;100393.06;;;5.11;80.10
67517;BME280;68821;59.134;37.894;2023-04-04T00:32:03;100382.81;;;5.10;80.13
67517;BME280;68821;59.134;37.894;2023-04-04T00:34:30;100388.66;;;5.07;79.69
67517;BME280;68821;59.134;37.894;2023-04-04T00:36:56;100383.50;;;5.06;80.30
67517;BME280;68821;59.134;37.894;2023-04-04T00:39:23;100389.59;;;5.09;80.11
67517;BME280;68821;59.134;37.894;2023-04-04T00:41:51;100380.16;;;5.07;79.70
67517;BME280;68821;59.134;37.894;2023-04-04T00:44:17;100383.63;;;5.09;79.69
67517;BME280;68821;59.134;37.894;2023-04-04T00:46:43;100378.41;;;5.06;80.21
67517;BME280;68821;59.134;37.894;2023-04-04T00:49:09;100383.50;;;5.06;80.54
67517;BME280;68821;59.134;37.894;2023-04-04T00:51:36;100381.88;;;5.08;80.06
67517;BME280;68821;59.134;37.894;2023-04-04T00:54:02;100381.03;;;5.07;79.97
67517;BME280;68821;59.134;37.894;2023-04-04T00:56:29;100389.53;;;5.08;80.16
67517;BME280;68821;59.134;37.894;2023-04-04T00:58:57;100381.81;;;5.06;79.61
67517;BME280;68821;59.134;37.894;2023-04-04T01:01:25;100372.31;;;5.02;79.73
67517;BME280;68821;59.134;37.894;2023-04-04T01:03:51;100382.56;;;5.03;80.00
67517;BME280;68821;59.134;37.894;2023-04-04T01:06:18;100378.31;;;5.02;79.95
67517;BME280;68821;59.134;37.894;2023-04-04T01:08:45;100369.72;;;5.00;80.20
67517;BME280;68821;59.134;37.894;2023-04-04T01:11:11;100371.38;;;5.00;79.68
67517;BME280;68821;59.134;37.894;2023-04-04T01:13:38;100377.22;;;4.97;79.71
67517;BME280;68821;59.134;37.894;2023-04-04T01:16:05;100365.09;;;4.90;79.82
67517;BME280;68821;59.134;37.894;2023-04-04T01:18:32;100373.53;;;4.89;80.32
67517;BME280;68821;59.134;37.894;2023-04-04T01:21:02;100376.75;;;4.85;79.67
67517;BME280;68821;59.134;37.894;2023-04-04T01:26:23;100378.97;;;4.77;80.18
67517;BME280;68821;59.134;37.894;2023-04-04T01:28:49;100370.31;;;4.72;80.12
67517;BME280;68821;59.134;37.894;2023-04-04T01:31:19;100369.38;;;4.70;79.79
67517;BME280;68821;59.134;37.894;2023-04-04T01:34:13;100357.94;;;4.60;80.20
67517;BME280;68821;59.134;37.894;2023-04-04T01:36:52;100365.81;;;4.67;80.36
67517;BME280;68821;59.134;37.894;2023-04-04T01:39:31;100364.09;;;4.66;80.30
67517;BME280;68821;59.134;37.894;2023-04-04T01:42:02;100364.09;;;4.66;80.24
67517;BME280;68821;59.134;37.894;2023-04-04T01:44:28;100361.41;;;4.62;80.43
67517;BME280;68821;59.134;37.894;2023-04-04T01:46:55;100363.97;;;4.62;80.22
67517;BME280;68821;59.134;37.894;2023-04-04T01:49:21;100359.63;;;4.60;80.16
67517;BME280;68821;59.134;37.894;2023-04-04T01:51:49;100359.44;;;4.55;80.20
67517;BME280;68821;59.134;37.894;2023-04-04T01:54:16;100362.00;;;4.55;80.38
67517;BME280;68821;59.134;37.894;2023-04-04T01:56:44;100368.69;;;4.53;80.52
67517;BME280;68821;59.134;37.894;2023-04-04T01:59:11;100356.69;;;4.51;80.18
67517;BME280;68821;59.134;37.894;2023-04-04T02:01:37;100358.38;;;4.50;80.32
67517;BME280;68821;59.134;37.894;2023-04-04T02:04:04;100366.00;;;4.50;80.48
67517;BME280;68821;59.134;37.894;2023-04-04T02:06:30;100360.06;;;4.50;80.33
67517;BME280;68821;59.134;37.894;2023-04-04T02:08:56;100354.03;;;4.48;80.73
67517;BME280;68821;59.134;37.894;2023-04-04T02:11:23;100361.00;;;4.52;80.28
67517;BME280;68821;59.134;37.894;2023-04-04T02:13:49;100364.41;;;4.52;79.99
67517;BME280;68821;59.134;37.894;2023-04-04T02:16:15;100356.00;;;4.55;80.54
67517;BME280;68821;59.134;37.894;2023-04-04T02:18:42;100357.69;;;4.54;80.09
67517;BME280;68821;59.134;37.894;2023-04-04T02:21:08;100356.84;;;4.54;80.08
67517;BME280;68821;59.134;37.894;2023-04-04T02:23:35;100354.34;;;4.55;80.37
67517;BME280;68821;59.134;37.894;2023-04-04T02:26:01;100359.38;;;4.54;80.34
67517;BME280;68821;59.134;37.894;2023-04-04T02:28:28;100354.28;;;4.54;80.28
67517;BME280;68821;59.134;37.894;2023-04-04T02:30:58;100355.81;;;4.50;80.16
67517;BME280;68821;59.134;37.894;2023-04-04T02:33:26;100363.47;;;4.50;80.25
67517;BME280;68821;59.134;37.894;2023-04-04T02:35:59;100358.38;;;4.50;80.24
67517;BME280;68821;59.134;37.894;2023-04-04T02:38:25;100353.22;;;4.49;80.26
67517;BME280;68821;59.134;37.894;2023-04-04T02:40:52;100345.53;;;4.47;80.25
67517;BME280;68821;59.134;37.894;2023-04-04T02:43:18;100361.59;;;4.46;80.46
67517;BME280;68821;59.134;37.894;2023-04-04T02:45:47;100355.66;;;4.46;80.08
67517;BME280;68821;59.134;37.894;2023-04-04T02:48:13;100359.75;;;4.42;80.07
67517;BME280;68821;59.134;37.894;2023-04-04T02:50:40;100361.41;;;4.41;80.02
67517;BME280;68821;59.134;37.894;2023-04-04T02:53:07;100364.75;;;4.40;80.13
67517;BME280;68821;59.134;37.894;2023-04-04T02:55:33;100368.97;;;4.40;80.43
67517;BME280;68821;59.134;37.894;2023-04-04T02:57:59;100358.47;;;4.32;80.30
67517;BME280;68821;59.134;37.894;2023-04-04T03:00:26;100358.47;;;4.32;79.94
67517;BME280;68821;59.134;37.894;2023-04-04T03:02:56;100366.00;;;4.29;80.32
67517;BME280;68821;59.134;37.894;2023-04-04T03:05:23;100349.66;;;4.24;80.41
67517;BME280;68821;59.134;37.894;2023-04-04T03:07:54;100357.25;;;4.22;80.06
67517;BME280;68821;59.134;37.894;2023-04-04T03:10:25;100353.78;;;4.20;80.29
67517;BME280;68821;59.134;37.894;2023-04-04T03:12:51;100355.38;;;4.18;80.13
67517;BME280;68821;59.134;37.894;2023-04-04T03:15:17;100352.63;;;4.14;80.11
67517;BME280;68821;59.134;37.894;2023-04-04T03:17:44;100354.22;;;4.12;80.08
67517;BME280;68821;59.134;37.894;2023-04-04T03:20:11;100357.72;;;4.14;80.53
67517;BME280;68821;59.134;37.894;2023-04-04T03:22:37;100350.91;;;4.13;80.65
67517;BME280;68821;59.134;37.894;2023-04-04T03:25:04;100352.69;;;4.15;80.33
67517;BME280;68821;59.134;37.894;2023-04-04T03:27:30;100360.31;;;4.15;80.22
67517;BME280;68821;59.134;37.894;2023-04-04T03:29:57;100363.13;;;4.21;80.12
67517;BME280;68821;59.134;37.894;2023-04-04T03:32:24;100367.53;;;4.26;80.43
67517;BME280;68821;59.134;37.894;2023-04-04T03:34:50;100361.78;;;4.30;80.47
67517;BME280;68821;59.134;37.894;2023-04-04T03:37:17;100361.03;;;4.32;80.36
67517;BME280;68821;59.134;37.894;2023-04-04T03:39:43;100369.59;;;4.34;79.73
67517;BME280;68821;59.134;37.894;2023-04-04T03:42:09;100362.84;;;4.35;80.14
67517;BME280;68821;59.134;37.894;2023-04-04T03:44:39;100369.81;;;4.39;80.39
67517;BME280;68821;59.134;37.894;2023-04-04T03:47:05;100363.09;;;4.41;80.46
67517;BME280;68821;59.134;37.894;2023-04-04T03:49:31;100369.16;;;4.44;79.92
67517;BME280;68821;59.134;37.894;2023-04-04T03:51:58;100366.69;;;4.46;80.05
67517;BME280;68821;59.134;37.894;2023-04-04T03:54:27;100370.25;;;4.50;80.02
67517;BME280;68821;59.134;37.894;2023-04-04T03:56:53;100365.91;;;4.47;80.15
67517;BME280;68821;59.134;37.894;2023-04-04T03:59:20;100365.22;;;4.51;79.75
67517;BME280;68821;59.134;37.894;2023-04-04T04:01:46;100366.16;;;4.53;79.76
67517;BME280;68821;59.134;37.894;2023-04-04T04:04:12;100355.91;;;4.52;79.51
67517;BME280;68821;59.134;37.894;2023-04-04T04:06:38;100356.84;;;4.54;79.62
67517;BME280;68821;59.134;37.894;2023-04-04T04:09:04;100360.31;;;4.56;79.60
67517;BME280;68821;59.134;37.894;2023-04-04T04:11:30;100361.31;;;4.59;79.14
67517;BME280;68821;59.134;37.894;2023-04-04T04:13:56;100364.78;;;4.61;79.73
67517;BME280;68821;59.134;37.894;2023-04-04T04:16:22;100355.56;;;4.65;79.95
67517;BME280;68821;59.134;37.894;2023-04-04T04:18:48;100355.81;;;4.71;79.75
67517;BME280;68821;59.134;37.894;2023-04-04T04:21:14;100350.19;;;4.78;79.44
67517;BME280;68821;59.134;37.894;2023-04-04T04:23:40;100357.88;;;4.80;78.98
67517;BME280;68821;59.134;37.894;2023-04-04T04:26:06;100353.72;;;4.82;79.55
67517;BME280;68821;59.134;37.894;2023-04-04T04:28:32;100353.91;;;4.87;79.34
67517;BME280;68821;59.134;37.894;2023-04-04T04:31:05;100360.03;;;4.92;79.39
67517;BME280;68821;59.134;37.894;2023-04-04T04:33:32;100357.47;;;4.92;79.47
67517;BME280;68821;59.134;37.894;2023-04-04T04:35:59;100359.22;;;4.93;79.34
67517;BME280;68821;59.134;37.894;2023-04-04T04:38:26;100360.25;;;4.98;79.48
67517;BME280;68821;59.134;37.894;2023-04-04T04:40:53;100350.31;;;5.04;79.05
67517;BME280;68821;59.134;37.894;2023-04-04T04:43:19;100346.91;;;5.03;79.28
67517;BME280;68821;59.134;37.894;2023-04-04T04:45:45;100346.16;;;5.06;78.77
67517;BME280;68821;59.134;37.894;2023-04-04T04:48:12;100350.53;;;5.10;78.87
67517;BME280;68821;59.134;37.894;2023-04-04T04:50:38;100356.63;;;5.14;78.82
67517;BME280;68821;59.134;37.894;2023-04-04T04:53:04;100347.31;;;5.14;78.82
67517;BME280;68821;59.134;37.894;2023-04-04T04:55:30;100353.34;;;5.16;78.68
67517;BME280;68821;59.134;37.894;2023-04-04T04:57:56;100355.94;;;5.18;78.59
67517;BME280;68821;59.134;37.894;2023-04-04T05:00:22;100348.38;;;5.19;78.50
67517;BME280;68821;59.134;37.894;2023-04-04T05:02:48;100348.47;;;5.22;78.54
67517;BME280;68821;59.134;37.894;2023-04-04T05:05:14;100329.44;;;5.13;78.83
67517;BME280;68821;59.134;37.894;2023-04-04T05:07:44;100350.22;;;5.23;78.38
67517;BME280;68821;59.134;37.894;2023-04-04T05:10:11;100344.25;;;5.23;78.51
67517;BME280;68821;59.134;37.894;2023-04-04T05:12:44;100345.28;;;5.28;78.75
67517;BME280;68821;59.134;37.894;2023-04-04T05:15:11;100346.22;;;5.30;78.40
67517;BME280;68821;59.134;37.894;2023-04-04T05:17:37;100342.09;;;5.34;78.26
67517;BME280;68821;59.134;37.894;2023-04-04T05:20:05;100349.00;;;5.36;78.40
67517;BME280;68821;59.134;37.894;2023-04-04T05:22:31;100339.09;;;5.44;78.20
67517;BME280;68821;59.134;37.894;2023-04-04T05:24:57;100335.06;;;5.51;78.01
67517;BME280;68821;59.134;37.894;2023-04-04T05:27:23;100339.53;;;5.56;77.96
67517;BME280;68821;59.134;37.894;2023-04-04T05:29:49;100342.16;;;5.58;77.95
67517;BME280;68821;59.134;37.894;2023-04-04T05:32:15;100342.25;;;5.61;78.33
67517;BME280;68821;59.134;37.894;2023-04-04T05:34:41;100337.38;;;5.67;77.52
67517;BME280;68821;59.134;37.894;2023-04-04T05:37:07;100342.47;;;5.67;77.60
67517;BME280;68821;59.134;37.894;2023-04-04T05:39:38;100346.09;;;5.74;77.66
67517;BME280;68821;59.134;37.894;2023-04-04T05:42:05;100323.84;;;5.70;77.13
67517;BME280;68821;59.134;37.894;2023-04-04T05:44:31;100349.91;;;5.85;77.61
67517;BME280;68821;59.134;37.894;2023-04-04T05:46:57;100339.78;;;5.87;77.39
67517;BME280;68821;59.134;37.894;2023-04-04T05:49:23;100349.38;;;5.94;77.38
67517;BME280;68821;59.134;37.894;2023-04-04T05:51:50;100341.88;;;5.97;76.66
67517;BME280;68821;59.134;37.894;2023-04-04T05:54:17;100343.53;;;5.96;77.40
67517;BME280;68821;59.134;37.894;2023-04-04T05:56:43;100342.72;;;5.97;77.17
67517;BME280;68821;59.134;37.894;2023-04-04T05:59:09;100350.47;;;6.00;76.58
67517;BME280;68821;59.134;37.894;2023-04-04T06:01:35;100349.53;;;5.98;77.29
67517;BME280;68821;59.134;37.894;2023-04-04T06:04:01;100357.19;;;5.97;77.22
67517;BME280;68821;59.134;37.894;2023-04-04T06:06:28;100357.19;;;5.97;76.46
67517;BME280;68821;59.134;37.894;2023-04-04T06:08:54;100358.09;;;5.99;77.06
67517;BME280;68821;59.134;37.894;2023-04-04T06:11:20;100358.97;;;5.99;76.66
67517;BME280;68821;59.134;37.894;2023-04-04T06:13:48;100357.38;;;6.03;77.12
67517;BME280;68821;59.134;37.894;2023-04-04T06:16:14;100355.63;;;6.02;76.48
67517;BME280;68821;59.134;37.894;2023-04-04T06:18:40;100364.44;;;6.10;76.84
67517;BME280;68821;59.134;37.894;2023-04-04T06:21:06;100356.91;;;6.15;76.51
67517;BME280;68821;59.134;37.894;2023-04-04T06:23:32;100361.22;;;6.16;76.05
67517;BME280;68821;59.134;37.894;2023-04-04T06:25:58;100371.38;;;6.14;76.70
67517;BME280;68821;59.134;37.894;2023-04-04T06:28:24;100366.06;;;6.08;75.65
67517;BME280;68821;59.134;37.894;2023-04-04T06:30:50;100365.13;;;6.06;75.43
67517;BME280;68821;59.134;37.894;2023-04-04T06:33:17;100365.13;;;6.06;75.83
67517;BME280;68821;59.134;37.894;2023-04-04T06:35:43;100359.97;;;6.04;75.99
67517;BME280;68821;59.134;37.894;2023-04-04T06:38:09;100370.94;;;6.02;76.56
67517;BME280;68821;59.134;37.894;2023-04-04T06:40:35;100369.94;;;5.97;75.91
67517;BME280;68821;59.134;37.894;2023-04-04T06:43:01;100373.28;;;5.96;76.52
67517;BME280;68821;59.134;37.894;2023-04-04T06:45:28;100363.75;;;5.92;75.54
67517;BME280;68821;59.134;37.894;2023-04-04T06:47:54;100374.78;;;5.91;76.45
67517;BME280;68821;59.134;37.894;2023-04-04T06:50:21;100370.59;;;5.93;76.29
67517;BME280;68821;59.134;37.894;2023-04-04T06:52:48;100373.44;;;6.00;75.96
67517;BME280;68821;59.134;37.894;2023-04-04T06:55:15;100367.75;;;6.08;75.93
67517;BME280;68821;59.134;37.894;2023-04-04T06:57:41;100367.19;;;6.16;75.87
67517;BME280;68821;59.134;37.894;2023-04-04T07:00:07;100368.09;;;6.18;76.00
67517;BME280;68821;59.134;37.894;2023-04-04T07:02:35;100373.22;;;6.18;75.51
67517;BME280;68821;59.134;37.894;2023-04-04T07:05:02;100366.28;;;6.14;75.16
67517;BME280;68821;59.134;37.894;2023-04-04T07:07:29;100367.19;;;6.16;75.37
67517;BME280;68821;59.134;37.894;2023-04-04T07:09:55;100369.88;;;6.21;76.23
67517;BME280;68821;59.134;37.894;2023-04-04T07:12:21;100360.78;;;6.28;75.28
67517;BME280;68821;59.134;37.894;2023-04-04T07:14:47;100368.03;;;6.41;76.16
67517;BME280;68821;59.134;37.894;2023-04-04T07:17:13;100354.66;;;6.48;75.18
67517;BME280;68821;59.134;37.894;2023-04-04T07:19:39;100359.91;;;6.53;75.57
67517;BME280;68821;59.134;37.894;2023-04-04T07:22:05;100360.16;;;6.60;74.81
67517;BME280;68821;59.134;37.894;2023-04-04T07:24:31;100362.72;;;6.60;75.03
67517;BME280;68821;59.134;37.894;2023-04-04T07:27:05;100355.97;;;6.62;74.85
67517;BME280;68821;59.134;37.894;2023-04-04T07:29:31;100347.34;;;6.59;75.08
67517;BME280;68821;59.134;37.894;2023-04-04T07:31:57;100351.88;;;6.68;75.00
67517;BME280;68821;59.134;37.894;2023-04-04T07:34:23;100352.66;;;6.65;75.31
67517;BME280;68821;59.134;37.894;2023-04-04T07:36:50;100350.88;;;6.64;75.20
67517;BME280;68821;59.134;37.894;2023-04-04T07:39:16;100353.44;;;6.64;74.69
67517;BME280;68821;59.134;37.894;2023-04-04T07:41:42;100348.31;;;6.62;74.99
67517;BME280;68821;59.134;37.894;2023-04-04T07:44:08;100348.19;;;6.59;75.31
67517;BME280;68821;59.134;37.894;2023-04-04T07:46:34;100347.13;;;6.53;75.32
67517;BME280;68821;59.134;37.894;2023-04-04T07:49:00;100342.81;;;6.50;75.02
67517;BME280;68821;59.134;37.894;2023-04-04T07:51:27;100349.53;;;6.48;75.23
67517;BME280;68821;59.134;37.894;2023-04-04T07:53:55;100350.41;;;6.49;75.70
67517;BME280;68821;59.134;37.894;2023-04-04T07:56:22;100343.59;;;6.49;75.79
67517;BME280;68821;59.134;37.894;2023-04-04T07:58:48;100345.44;;;6.53;74.77
67517;BME280;68821;59.134;37.894;2023-04-04T08:01:15;100345.38;;;6.52;74.99
67517;BME280;68821;59.134;37.894;2023-04-04T08:03:41;100348.72;;;6.49;75.14
67517;BME280;68821;59.134;37.894;2023-04-04T08:06:08;100336.41;;;6.37;75.71
67517;BME280;68821;59.134;37.894;2023-04-04T08:08:34;100348.09;;;6.31;75.42
67517;BME280;68821;59.134;37.894;2023-04-04T08:11:01;100349.53;;;6.22;75.03
67517;BME280;68821;59.134;37.894;2023-04-04T08:13:27;100352.00;;;6.19;75.62
67517;BME280;68821;59.134;37.894;2023-04-04T08:15:55;100345.97;;;6.17;75.67
67517;BME280;68821;59.134;37.894;2023-04-04T08:18:21;100348.53;;;6.17;76.19
67517;BME280;68821;59.134;37.894;2023-04-04T08:20:47;100340.09;;;6.20;75.92
67517;BME280;68821;59.134;37.894;2023-04-04T08:23:14;100330.28;;;6.32;76.01
67517;BME280;68821;59.134;37.894;2023-04-04T08:25:40;100334.31;;;6.51;75.56
67517;BME280;68821;59.134;37.894;2023-04-04T08:28:08;100337.72;;;6.77;75.19
67517;BME280;68821;59.134;37.894;2023-04-04T08:30:35;100331.78;;;7.07;75.38
67517;BME280;68821;59.134;37.894;2023-04-04T08:33:01;100336.81;;;7.33;74.52
67517;BME280;68821;59.134;37.894;2023-04-04T08:35:28;100332.25;;;7.51;74.61
67517;BME280;68821;59.134;37.894;2023-04-04T08:37:54;100324.16;;;7.68;73.97
67517;BME280;68821;59.134;37.894;2023-04-04T08:40:20;100319.63;;;7.89;73.71
67517;BME280;68821;59.134;37.894;2023-04-04T08:42:49;100327.94;;;8.12;73.73
67517;BME280;68821;59.134;37.894;2023-04-04T08:45:17;100318.84;;;8.25;73.41
67517;BME280;68821;59.134;37.894;2023-04-04T08:47:51;100318.91;;;8.28;72.78
67517;BME280;68821;59.134;37.894;2023-04-04T08:50:19;100313.53;;;8.17;73.09
67517;BME280;68821;59.134;37.894;2023-04-04T08:52:46;100325.28;;;8.09;73.17
67517;BME280;68821;59.134;37.894;2023-04-04T08:55:12;100325.97;;;8.03;73.26
67517;BME280;68821;59.134;37.894;2023-04-04T08:57:40;100325.78;;;7.96;72.96
67517;BME280;68821;59.134;37.894;2023-04-04T09:00:07;100310.97;;;7.84;73.25
67517;BME280;68821;59.134;37.894;2023-04-04T09:02:39;100322.63;;;7.74;73.34
67517;BME280;68821;59.134;37.894;2023-04-04T09:05:08;100313.03;;;7.65;73.29
67517;BME280;68821;59.134;37.894;2023-04-04T09:07:35;100311.16;;;7.60;73.56
67517;BME280;68821;59.134;37.894;2023-04-04T09:10:02;100318.94;;;7.63;73.09
67517;BME280;68821;59.134;37.894;2023-04-04T09:12:30;100319.06;;;7.68;73.17
67517;BME280;68821;59.134;37.894;2023-04-04T09:14:58;100321.91;;;7.78;73.08
67517;BME280;68821;59.134;37.894;2023-04-04T09:17:25;100309.38;;;7.88;73.19
67517;BME280;68821;59.134;37.894;2023-04-04T09:19:51;100307.47;;;8.14;72.79
67517;BME280;68821;59.134;37.894;2023-04-04T09:22:18;100309.97;;;8.44;72.24
67517;BME280;68821;59.134;37.894;2023-04-04T09:24:45;100307.03;;;8.65;71.84
67517;BME280;68821;59.134;37.894;2023-04-04T09:27:14;100313.34;;;8.78;71.84
67517;BME280;68821;59.134;37.894;2023-04-04T09:29:41;100316.75;;;8.78;71.84
67517;BME280;68821;59.134;37.894;2023-04-04T09:32:14;100320.19;;;8.79;71.51
67517;BME280;68821;59.134;37.894;2023-04-04T09:34:41;100319.28;;;8.77;71.61
67517;BME280;68821;59.134;37.894;2023-04-04T09:37:13;100320.78;;;8.69;71.77
67517;BME280;68821;59.134;37.894;2023-04-04T09:39:41;100321.66;;;8.69;71.83
67517;BME280;68821;59.134;37.894;2023-04-04T09:42:08;100323.31;;;8.65;71.52
67517;BME280;68821;59.134;37.894;2023-04-04T09:44:35;100325.81;;;8.64;71.24
67517;BME280;68821;59.134;37.894;2023-04-04T09:47:28;100328.16;;;8.55;71.31
67517;BME280;68821;59.134;37.894;2023-04-04T09:50:00;100322.97;;;8.52;71.70
67517;BME280;68821;59.134;37.894;2023-04-04T09:52:26;100325.81;;;8.64;71.50
67517;BME280;68821;59.134;37.894;2023-04-04T09:54:57;100327.69;;;8.71;71.10
67517;BME280;68821;59.134;37.894;2023-04-04T09:57:25;100328.47;;;8.69;70.89
67517;BME280;68821;59.134;37.894;2023-04-04T09:59:51;100335.16;;;8.62;71.17
67517;BME280;68821;59.134;37.894;2023-04-04T10:02:18;100329.91;;;8.56;71.23
67517;BME280;68821;59.134;37.894;2023-04-04T10:04:44;100333.13;;;8.49;71.13
67517;BME280;68821;59.134;37.894;2023-04-04T10:07:12;100336.47;;;8.46;70.82
67517;BME280;68821;59.134;37.894;2023-04-04T10:09:39;100343.22;;;8.42;71.37
67517;BME280;68821;59.134;37.894;2023-04-04T10:12:09;100335.53;;;8.42;71.49
67517;BME280;68821;59.134;37.894;2023-04-04T10:14:36;100337.16;;;8.40;71.61
67517;BME280;68821;59.134;37.894;2023-04-04T10:17:12;100323.13;;;8.26;71.80
67517;BME280;68821;59.134;37.894;2023-04-04T10:19:38;100330.97;;;8.32;71.65
67517;BME280;68821;59.134;37.894;2023-04-04T10:22:05;100338.66;;;8.32;71.84
67517;BME280;68821;59.134;37.894;2023-04-04T10:24:32;100342.91;;;8.32;71.44
67517;BME280;68821;59.134;37.894;2023-04-04T10:26:58;100346.38;;;8.34;71.48
67517;BME280;68821;59.134;37.894;2023-04-04T10:29:25;100340.31;;;8.30;71.37
67517;BME280;68821;59.134;37.894;2023-04-04T10:32:00;100352.38;;;8.34;71.24
67517;BME280;68821;59.134;37.894;2023-04-04T10:34:31;100357.59;;;8.37;71.00
67517;BME280;68821;59.134;37.894;2023-04-04T10:37:07;100356.03;;;8.42;70.83
67517;BME280;68821;59.134;37.894;2023-04-04T10:42:39;100344.56;;;8.30;71.37
67517;BME280;68821;59.134;37.894;2023-04-04T10:45:07;100349.69;;;8.30;71.35
67517;BME280;68821;59.134;37.894;2023-04-04T10:47:38;100358.13;;;8.25;71.32
67517;BME280;68821;59.134;37.894;2023-04-04T10:50:05;100358.13;;;8.25;71.07
67517;BME280;68821;59.134;37.894;2023-04-04T10:52:32;100353.72;;;8.20;70.97
67517;BME280;68821;59.134;37.894;2023-04-04T10:55:00;100352.75;;;8.15;71.32
67517;BME280;68821;59.134;37.894;2023-04-04T10:57:29;100354.28;;;8.10;71.71
67517;BME280;68821;59.134;37.894;2023-04-04T11:00:08;100354.19;;;8.05;71.37
67517;BME280;68821;59.134;37.894;2023-04-04T11:05:34;100356.56;;;7.99;71.68
67517;BME280;68821;59.134;37.894;2023-04-04T11:08:21;100354.13;;;8.02;71.85
67517;BME280;68821;59.134;37.894;2023-04-04T11:10:51;100356.69;;;8.02;71.45
67517;BME280;68821;59.134;37.894;2023-04-04T11:13:19;100355.59;;;7.94;71.97
67517;BME280;68821;59.134;37.894;2023-04-04T11:21:15;100359.97;;;7.98;71.66
67517;BME280;68821;59.134;37.894;2023-04-04T11:28:58;100359.06;;;7.96;71.61
67517;BME280;68821;59.134;37.894;2023-04-04T11:31:27;100359.94;;;7.96;71.55
67517;BME280;68821;59.134;37.894;2023-04-04T11:39:30;100356.34;;;7.91;71.68
67517;BME280;68821;59.134;37.894;2023-04-04T11:42:00;100367.50;;;7.92;71.59
67517;BME280;68821;59.134;37.894;2023-04-04T11:44:31;100362.06;;;7.81;71.64
67517;BME280;68821;59.134;37.894;2023-04-04T11:47:04;100358.47;;;7.74;71.58
67517;BME280;68821;59.134;37.894;2023-04-04T11:49:39;100353.22;;;7.70;71.72
67517;BME280;68821;59.134;37.894;2023-04-04T11:52:13;100362.53;;;7.68;71.71
67517;BME280;68821;59.134;37.894;2023-04-04T11:54:41;100362.63;;;7.71;71.92
67517;BME280;68821;59.134;37.894;2023-04-04T11:57:13;100380.34;;;7.64;72.14
67517;BME280;68821;59.134;37.894;2023-04-04T11:59:50;100369.69;;;7.49;72.08
67517;BME280;68821;59.134;37.894;2023-04-04T12:02:22;100368.66;;;7.42;72.43
67517;BME280;68821;59.134;37.894;2023-04-04T12:04:52;100372.81;;;7.39;72.51
67517;BME280;68821;59.134;37.894;2023-04-04T12:07:18;100377.06;;;7.38;72.63
67517;BME280;68821;59.134;37.894;2023-04-04T12:09:45;100369.34;;;7.37;72.67
67517;BME280;68821;59.134;37.894;2023-04-04T12:12:12;100375.22;;;7.34;72.43
67517;BME280;68821;59.134;37.894;2023-04-04T12:14:42;100373.41;;;7.30;72.84
67517;BME280;68821;59.134;37.894;2023-04-04T12:17:09;100370.06;;;7.33;72.71
67517;BME280;68821;59.134;37.894;2023-04-04T12:19:36;100375.22;;;7.34;72.64
67517;BME280;68821;59.134;37.894;2023-04-04T12:22:04;100376.09;;;7.35;72.40
67517;BME280;68821;59.134;37.894;2023-04-04T12:24:30;100379.38;;;7.31;72.74
67517;BME280;68821;59.134;37.894;2023-04-04T12:26:58;100380.28;;;7.33;72.86
67517;BME280;68821;59.134;37.894;2023-04-04T12:29:25;100379.50;;;7.35;72.86
67517;BME280;68821;59.134;37.894;2023-04-04T12:31:54;100378.72;;;7.36;72.65
67517;BME280;68821;59.134;37.894;2023-04-04T12:34:22;100376.78;;;7.29;72.93
67517;BME280;68821;59.134;37.894;2023-04-04T12:36:52;100378.53;;;7.32;72.77
67517;BME280;68821;59.134;37.894;2023-04-04T12:39:19;100377.59;;;7.28;72.74
67517;BME280;68821;59.134;37.894;2023-04-04T12:41:58;100380.91;;;7.25;72.72
67517;BME280;68821;59.134;37.894;2023-04-04T12:44:26;100383.47;;;7.25;73.29
67517;BME280;68821;59.134;37.894;2023-04-04T12:46:56;100381.88;;;7.29;72.88
67517;BME280;68821;59.134;37.894;2023-04-04T12:49:29;100382.91;;;7.34;72.52
67517;BME280;68821;59.134;37.894;2023-04-04T12:51:56;100388.94;;;7.36;73.05
67517;BME280;68821;59.134;37.894;2023-04-04T12:54:27;100386.31;;;7.35;72.92
67517;BME280;68821;59.134;37.894;2023-04-04T12:56:58;100383.63;;;7.30;73.06
67517;BME280;68821;59.134;37.894;2023-04-04T12:59:31;100387.19;;;7.35;72.82
67517;BME280;68821;59.134;37.894;2023-04-04T13:02:05;100389.78;;;7.37;72.86
67517;BME280;68821;59.134;37.894;2023-04-04T13:04:32;100383.03;;;7.39;73.19
67517;BME280;68821;59.134;37.894;2023-04-04T13:06:59;100384.88;;;7.43;72.86
67517;BME280;68821;59.134;37.894;2023-04-04T13:09:27;100384.13;;;7.47;72.47
67517;BME280;68821;59.134;37.894;2023-04-04T13:12:04;100382.44;;;7.48;72.79
67517;BME280;68821;59.134;37.894;2023-04-04T13:14:56;100375.44;;;7.42;72.32
67517;BME280;68821;59.134;37.894;2023-04-04T13:17:22;100379.56;;;7.37;72.37